sensor_id;sensor_type;location;lat;lon;timestamp;temperature;humidity
46562;DHT22;32289;42.688;23.330;2023-03-01T00:02:54;5.40;99.90
46562;DHT22;32289;42.688;23.330;2023-03-01T00:06:35;5.50;99.90
46562;DHT22;32289;42.688;23.330;2023-03-01T00:10:16;5.40;99.90
46562;DHT22;32289;42.688;23.330;2023-03-01T00:13:58;5.40;99.90
46562;DHT22;32289;42.688;23.330;2023-03-01T00:17:41;5.40;99.90
46562;DHT22;32289;42.688;23.330;2023-03-01T00:21:22;5.40;99.90
46562;DHT22;32289;42.688;23.330;2023-03-01T00:25:04;5.40;99.90
46562;DHT22;32289;42.688;23.330;2023-03-01T00:28:45;5.30;99.90
46562;DHT22;32289;42.688;23.330;2023-03-01T00:32:26;5.30;99.90
46562;DHT22;32289;42.688;23.330;2023-03-01T00:36:07;5.30;99.90
46562;DHT22;32289;42.688;23.330;2023-03-01T00:39:48;5.30;99.90
46562;DHT22;32289;42.688;23.330;2023-03-01T00:43:28;5.20;99.90
46562;DHT22;32289;42.688;23.330;2023-03-01T00:47:09;5.20;99.90
46562;DHT22;32289;42.688;23.330;2023-03-01T00:50:50;5.20;99.90
46562;DHT22;32289;42.688;23.330;2023-03-01T00:54:31;5.20;99.90
46562;DHT22;32289;42.688;23.330;2023-03-01T00:58:11;5.20;99.90
46562;DHT22;32289;42.688;23.330;2023-03-01T01:01:52;5.20;99.90
46562;DHT22;32289;42.688;23.330;2023-03-01T01:05:34;5.10;99.90
46562;DHT22;32289;42.688;23.330;2023-03-01T01:09:16;5.10;99.90
46562;DHT22;32289;42.688;23.330;2023-03-01T01:12:57;5.10;99.90
46562;DHT22;32289;42.688;23.330;2023-03-01T01:16:38;5.20;99.90
46562;DHT22;32289;42.688;23.330;2023-03-01T01:20:19;5.10;99.90
46562;DHT22;32289;42.688;23.330;2023-03-01T01:24:02;5.10;99.90
46562;DHT22;32289;42.688;23.330;2023-03-01T01:27:42;5.00;99.90
46562;DHT22;32289;42.688;23.330;2023-03-01T01:31:24;5.00;99.90
46562;DHT22;32289;42.688;23.330;2023-03-01T01:35:06;5.00;99.90
46562;DHT22;32289;42.688;23.330;2023-03-01T01:38:47;5.00;99.90
46562;DHT22;32289;42.688;23.330;2023-03-01T01:42:27;5.00;99.90
46562;DHT22;32289;42.688;23.330;2023-03-01T01:46:30;5.10;99.90
46562;DHT22;32289;42.688;23.330;2023-03-01T01:50:16;5.10;99.90
46562;DHT22;32289;42.688;23.330;2023-03-01T01:54:00;5.20;99.90
46562;DHT22;32289;42.688;23.330;2023-03-01T01:57:47;5.10;99.90
46562;DHT22;32289;42.688;23.330;2023-03-01T02:01:29;5.10;99.90
46562;DHT22;32289;42.688;23.330;2023-03-01T02:09:02;5.20;99.90
46562;DHT22;32289;42.688;23.330;2023-03-01T02:12:44;5.20;99.90
46562;DHT22;32289;42.688;23.330;2023-03-01T02:16:26;5.30;99.90
46562;DHT22;32289;42.688;23.330;2023-03-01T02:24:38;5.20;99.90
46562;DHT22;32289;42.688;23.330;2023-03-01T02:28:33;5.20;99.90
46562;DHT22;32289;42.688;23.330;2023-03-01T02:32:15;5.30;99.90
46562;DHT22;32289;42.688;23.330;2023-03-01T02:35:57;5.30;99.90
46562;DHT22;32289;42.688;23.330;2023-03-01T02:39:44;5.20;99.90
46562;DHT22;32289;42.688;23.330;2023-03-01T02:43:30;5.20;99.90
46562;DHT22;32289;42.688;23.330;2023-03-01T02:47:11;5.10;99.90
46562;DHT22;32289;42.688;23.330;2023-03-01T02:51:11;5.10;99.90
46562;DHT22;32289;42.688;23.330;2023-03-01T02:55:02;5.10;99.90
46562;DHT22;32289;42.688;23.330;2023-03-01T02:58:44;5.00;99.90
46562;DHT22;32289;42.688;23.330;2023-03-01T03:02:29;5.00;99.90
46562;DHT22;32289;42.688;23.330;2023-03-01T03:06:16;5.00;99.90
46562;DHT22;32289;42.688;23.330;2023-03-01T03:09:56;5.00;99.90
46562;DHT22;32289;42.688;23.330;2023-03-01T03:13:37;5.20;99.90
46562;DHT22;32289;42.688;23.330;2023-03-01T03:17:28;5.10;99.90
46562;DHT22;32289;42.688;23.330;2023-03-01T03:21:09;5.00;99.90
46562;DHT22;32289;42.688;23.330;2023-03-01T03:24:51;5.00;99.90
46562;DHT22;32289;42.688;23.330;2023-03-01T03:28:33;4.90;99.90
46562;DHT22;32289;42.688;23.330;2023-03-01T03:32:14;5.00;99.90
46562;DHT22;32289;42.688;23.330;2023-03-01T03:35:55;5.00;99.90
46562;DHT22;32289;42.688;23.330;2023-03-01T03:39:35;4.90;99.90
46562;DHT22;32289;42.688;23.330;2023-03-01T03:43:35;4.90;99.90
46562;DHT22;32289;42.688;23.330;2023-03-01T03:47:16;4.90;99.90
46562;DHT22;32289;42.688;23.330;2023-03-01T03:50:57;4.90;99.90
46562;DHT22;32289;42.688;23.330;2023-03-01T03:54:37;4.90;99.90
46562;DHT22;32289;42.688;23.330;2023-03-01T03:58:20;4.80;99.90
46562;DHT22;32289;42.688;23.330;2023-03-01T04:02:16;4.80;99.90
46562;DHT22;32289;42.688;23.330;2023-03-01T04:06:02;4.80;99.90
46562;DHT22;32289;42.688;23.330;2023-03-01T04:09:44;4.80;99.90
46562;DHT22;32289;42.688;23.330;2023-03-01T04:13:26;4.90;99.90
46562;DHT22;32289;42.688;23.330;2023-03-01T04:17:07;4.80;99.90
46562;DHT22;32289;42.688;23.330;2023-03-01T04:20:47;4.80;99.90
46562;DHT22;32289;42.688;23.330;2023-03-01T04:24:28;4.70;99.90
46562;DHT22;32289;42.688;23.330;2023-03-01T04:28:10;4.60;99.90
46562;DHT22;32289;42.688;23.330;2023-03-01T04:31:50;4.60;99.90
46562;DHT22;32289;42.688;23.330;2023-03-01T04:35:31;4.60;99.90
46562;DHT22;32289;42.688;23.330;2023-03-01T04:39:12;4.60;99.90
46562;DHT22;32289;42.688;23.330;2023-03-01T04:42:53;4.60;99.90
46562;DHT22;32289;42.688;23.330;2023-03-01T04:46:34;4.60;99.90
46562;DHT22;32289;42.688;23.330;2023-03-01T04:50:16;4.60;99.90
46562;DHT22;32289;42.688;23.330;2023-03-01T04:53:57;4.60;99.90
46562;DHT22;32289;42.688;23.330;2023-03-01T04:57:38;4.50;99.90
46562;DHT22;32289;42.688;23.330;2023-03-01T05:01:20;4.50;99.90
46562;DHT22;32289;42.688;23.330;2023-03-01T05:05:01;4.60;99.90
46562;DHT22;32289;42.688;23.330;2023-03-01T05:08:42;4.70;99.90
46562;DHT22;32289;42.688;23.330;2023-03-01T05:12:23;4.60;99.90
46562;DHT22;32289;42.688;23.330;2023-03-01T05:16:05;4.60;99.90
46562;DHT22;32289;42.688;23.330;2023-03-01T05:19:46;4.50;99.90
46562;DHT22;32289;42.688;23.330;2023-03-01T05:23:26;4.60;99.90
46562;DHT22;32289;42.688;23.330;2023-03-01T05:27:07;4.60;99.90
46562;DHT22;32289;42.688;23.330;2023-03-01T05:30:48;4.60;99.90
46562;DHT22;32289;42.688;23.330;2023-03-01T05:34:33;4.60;99.90
46562;DHT22;32289;42.688;23.330;2023-03-01T05:38:16;4.70;99.90
46562;DHT22;32289;42.688;23.330;2023-03-01T05:41:59;4.70;99.90
46562;DHT22;32289;42.688;23.330;2023-03-01T05:45:42;4.70;99.90
46562;DHT22;32289;42.688;23.330;2023-03-01T05:49:22;4.70;99.90
46562;DHT22;32289;42.688;23.330;2023-03-01T05:53:13;4.60;99.90
46562;DHT22;32289;42.688;23.330;2023-03-01T05:56:58;4.60;99.90
46562;DHT22;32289;42.688;23.330;2023-03-01T06:00:38;4.60;99.90
46562;DHT22;32289;42.688;23.330;2023-03-01T06:04:19;4.70;99.90
46562;DHT22;32289;42.688;23.330;2023-03-01T06:08:02;4.70;99.90
46562;DHT22;32289;42.688;23.330;2023-03-01T06:11:43;4.70;99.90
46562;DHT22;32289;42.688;23.330;2023-03-01T06:15:25;4.70;99.90
46562;DHT22;32289;42.688;23.330;2023-03-01T06:19:06;4.70;99.90
46562;DHT22;32289;42.688;23.330;2023-03-01T06:22:47;4.70;99.90
46562;DHT22;32289;42.688;23.330;2023-03-01T06:26:28;4.70;99.90
46562;DHT22;32289;42.688;23.330;2023-03-01T06:30:11;4.70;99.90
46562;DHT22;32289;42.688;23.330;2023-03-01T06:33:52;4.60;99.90
46562;DHT22;32289;42.688;23.330;2023-03-01T06:37:33;4.70;99.90
46562;DHT22;32289;42.688;23.330;2023-03-01T06:41:14;4.60;99.90
46562;DHT22;32289;42.688;23.330;2023-03-01T06:44:54;4.60;99.90
46562;DHT22;32289;42.688;23.330;2023-03-01T06:48:35;4.70;99.90
46562;DHT22;32289;42.688;23.330;2023-03-01T06:52:16;4.90;99.90
46562;DHT22;32289;42.688;23.330;2023-03-01T06:55:57;4.80;99.90
46562;DHT22;32289;42.688;23.330;2023-03-01T06:59:39;4.80;99.90
46562;DHT22;32289;42.688;23.330;2023-03-01T07:03:20;4.80;99.90
46562;DHT22;32289;42.688;23.330;2023-03-01T07:07:01;4.80;99.90
46562;DHT22;32289;42.688;23.330;2023-03-01T07:10:42;4.70;99.90
46562;DHT22;32289;42.688;23.330;2023-03-01T07:14:22;4.80;99.90
46562;DHT22;32289;42.688;23.330;2023-03-01T07:18:06;4.90;99.90
46562;DHT22;32289;42.688;23.330;2023-03-01T07:21:47;4.90;99.90
46562;DHT22;32289;42.688;23.330;2023-03-01T07:25:27;4.90;99.90
46562;DHT22;32289;42.688;23.330;2023-03-01T07:29:10;4.90;99.90
46562;DHT22;32289;42.688;23.330;2023-03-01T07:32:51;5.00;99.90
46562;DHT22;32289;42.688;23.330;2023-03-01T07:36:32;5.00;99.90
46562;DHT22;32289;42.688;23.330;2023-03-01T07:40:13;5.10;99.90
46562;DHT22;32289;42.688;23.330;2023-03-01T07:43:54;5.30;99.90
46562;DHT22;32289;42.688;23.330;2023-03-01T07:47:34;5.20;99.90
46562;DHT22;32289;42.688;23.330;2023-03-01T07:51:15;5.30;99.90
46562;DHT22;32289;42.688;23.330;2023-03-01T07:54:56;5.40;99.90
46562;DHT22;32289;42.688;23.330;2023-03-01T07:58:39;5.50;99.90
46562;DHT22;32289;42.688;23.330;2023-03-01T08:02:20;5.60;99.90
46562;DHT22;32289;42.688;23.330;2023-03-01T08:06:01;5.50;99.90
46562;DHT22;32289;42.688;23.330;2023-03-01T08:09:42;5.80;99.90
46562;DHT22;32289;42.688;23.330;2023-03-01T08:13:23;5.80;99.90
46562;DHT22;32289;42.688;23.330;2023-03-01T08:17:04;5.80;99.90
46562;DHT22;32289;42.688;23.330;2023-03-01T08:20:45;5.90;99.90
46562;DHT22;32289;42.688;23.330;2023-03-01T08:24:26;5.90;99.90
46562;DHT22;32289;42.688;23.330;2023-03-01T08:28:06;6.00;99.90
46562;DHT22;32289;42.688;23.330;2023-03-01T08:31:47;6.30;99.90
46562;DHT22;32289;42.688;23.330;2023-03-01T08:35:28;5.90;99.90
46562;DHT22;32289;42.688;23.330;2023-03-01T08:39:11;5.90;99.90
46562;DHT22;32289;42.688;23.330;2023-03-01T08:42:52;5.80;99.90
46562;DHT22;32289;42.688;23.330;2023-03-01T08:46:35;6.00;99.90
46562;DHT22;32289;42.688;23.330;2023-03-01T08:50:16;6.00;99.90
46562;DHT22;32289;42.688;23.330;2023-03-01T08:53:57;6.20;99.90
46562;DHT22;32289;42.688;23.330;2023-03-01T08:57:37;6.20;99.90
46562;DHT22;32289;42.688;23.330;2023-03-01T09:01:19;6.30;99.90
46562;DHT22;32289;42.688;23.330;2023-03-01T09:04:59;6.20;99.90
46562;DHT22;32289;42.688;23.330;2023-03-01T09:08:42;6.40;99.90
46562;DHT22;32289;42.688;23.330;2023-03-01T09:12:23;6.40;99.90
46562;DHT22;32289;42.688;23.330;2023-03-01T09:16:07;6.60;99.90
46562;DHT22;32289;42.688;23.330;2023-03-01T09:19:48;6.70;99.90
46562;DHT22;32289;42.688;23.330;2023-03-01T09:23:29;6.70;99.90
46562;DHT22;32289;42.688;23.330;2023-03-01T09:27:10;7.00;99.90
46562;DHT22;32289;42.688;23.330;2023-03-01T09:30:51;7.20;99.90
46562;DHT22;32289;42.688;23.330;2023-03-01T09:34:32;6.70;99.90
46562;DHT22;32289;42.688;23.330;2023-03-01T09:38:32;6.60;99.90
46562;DHT22;32289;42.688;23.330;2023-03-01T09:42:14;6.80;99.90
46562;DHT22;32289;42.688;23.330;2023-03-01T09:46:00;6.90;99.90
46562;DHT22;32289;42.688;23.330;2023-03-01T09:49:52;7.00;99.90
46562;DHT22;32289;42.688;23.330;2023-03-01T09:53:36;7.20;99.90
46562;DHT22;32289;42.688;23.330;2023-03-01T10:01:27;7.10;99.90
46562;DHT22;32289;42.688;23.330;2023-03-01T10:05:41;6.90;99.90
46562;DHT22;32289;42.688;23.330;2023-03-01T10:09:19;7.10;99.90
46562;DHT22;32289;42.688;23.330;2023-03-01T10:13:13;6.90;99.90
46562;DHT22;32289;42.688;23.330;2023-03-01T10:16:57;7.30;99.90
46562;DHT22;32289;42.688;23.330;2023-03-01T10:20:48;7.20;99.90
46562;DHT22;32289;42.688;23.330;2023-03-01T10:24:35;7.20;99.90
46562;DHT22;32289;42.688;23.330;2023-03-01T10:28:28;7.00;99.90
46562;DHT22;32289;42.688;23.330;2023-03-01T10:32:10;7.20;99.90
46562;DHT22;32289;42.688;23.330;2023-03-01T10:35:51;7.00;99.90
46562;DHT22;32289;42.688;23.330;2023-03-01T10:39:32;7.00;99.90
46562;DHT22;32289;42.688;23.330;2023-03-01T10:43:13;6.90;99.90
46562;DHT22;32289;42.688;23.330;2023-03-01T10:47:00;7.20;99.90
46562;DHT22;32289;42.688;23.330;2023-03-01T10:54:55;7.90;99.90
46562;DHT22;32289;42.688;23.330;2023-03-01T10:58:39;8.00;99.90
46562;DHT22;32289;42.688;23.330;2023-03-01T11:02:29;8.00;99.90
46562;DHT22;32289;42.688;23.330;2023-03-01T11:09:54;8.20;99.90
46562;DHT22;32289;42.688;23.330;2023-03-01T11:13:35;8.10;99.90
46562;DHT22;32289;42.688;23.330;2023-03-01T11:17:22;7.40;99.90
46562;DHT22;32289;42.688;23.330;2023-03-01T11:21:07;7.80;99.90
46562;DHT22;32289;42.688;23.330;2023-03-01T11:24:54;7.50;99.90
46562;DHT22;32289;42.688;23.330;2023-03-01T11:28:36;7.90;99.90
46562;DHT22;32289;42.688;23.330;2023-03-01T11:32:20;8.20;99.90
46562;DHT22;32289;42.688;23.330;2023-03-01T11:36:03;8.10;99.90
46562;DHT22;32289;42.688;23.330;2023-03-01T11:40:05;7.60;99.90
46562;DHT22;32289;42.688;23.330;2023-03-01T11:56:09;8.20;99.90
46562;DHT22;32289;42.688;23.330;2023-03-01T12:16:02;7.70;99.90
46562;DHT22;32289;42.688;23.330;2023-03-01T12:48:50;7.50;99.90
46562;DHT22;32289;42.688;23.330;2023-03-01T12:52:53;7.30;99.90
46562;DHT22;32289;42.688;23.330;2023-03-01T12:56:36;7.20;99.90
46562;DHT22;32289;42.688;23.330;2023-03-01T13:04:35;7.60;99.90
46562;DHT22;32289;42.688;23.330;2023-03-01T13:08:33;7.70;99.90
46562;DHT22;32289;42.688;23.330;2023-03-01T13:12:52;7.50;99.90
46562;DHT22;32289;42.688;23.330;2023-03-01T13:16:41;7.50;99.90
46562;DHT22;32289;42.688;23.330;2023-03-01T13:32:27;7.10;99.90
46562;DHT22;32289;42.688;23.330;2023-03-01T13:36:10;7.10;99.90
46562;DHT22;32289;42.688;23.330;2023-03-01T13:39:53;7.20;99.90
46562;DHT22;32289;42.688;23.330;2023-03-01T13:43:40;7.00;99.90
46562;DHT22;32289;42.688;23.330;2023-03-01T13:47:22;7.00;99.90
46562;DHT22;32289;42.688;23.330;2023-03-01T13:51:08;7.00;99.90
46562;DHT22;32289;42.688;23.330;2023-03-01T13:54:49;7.00;99.90
46562;DHT22;32289;42.688;23.330;2023-03-01T13:58:32;7.00;99.90
46562;DHT22;32289;42.688;23.330;2023-03-01T14:02:23;7.10;99.90
46562;DHT22;32289;42.688;23.330;2023-03-01T14:09:52;7.10;99.90
46562;DHT22;32289;42.688;23.330;2023-03-01T14:18:14;7.20;99.90
46562;DHT22;32289;42.688;23.330;2023-03-01T14:22:05;7.30;99.90
46562;DHT22;32289;42.688;23.330;2023-03-01T14:25:55;7.30;99.90
46562;DHT22;32289;42.688;23.330;2023-03-01T14:29:39;7.30;99.90
46562;DHT22;32289;42.688;23.330;2023-03-01T14:41:11;7.00;99.90
46562;DHT22;32289;42.688;23.330;2023-03-01T14:44:55;6.90;99.90
46562;DHT22;32289;42.688;23.330;2023-03-01T14:48:37;6.80;99.90
46562;DHT22;32289;42.688;23.330;2023-03-01T14:52:21;6.90;99.90
46562;DHT22;32289;42.688;23.330;2023-03-01T14:56:02;6.70;99.90
46562;DHT22;32289;42.688;23.330;2023-03-01T14:59:43;6.90;99.90
46562;DHT22;32289;42.688;23.330;2023-03-01T15:07:13;6.70;99.90
46562;DHT22;32289;42.688;23.330;2023-03-01T15:19:06;6.70;99.90
46562;DHT22;32289;42.688;23.330;2023-03-01T15:22:47;6.70;99.90
46562;DHT22;32289;42.688;23.330;2023-03-01T15:26:32;6.60;99.90
46562;DHT22;32289;42.688;23.330;2023-03-01T15:30:26;6.50;99.90
46562;DHT22;32289;42.688;23.330;2023-03-01T15:34:23;6.60;99.90
46562;DHT22;32289;42.688;23.330;2023-03-01T15:42:13;6.40;99.90
46562;DHT22;32289;42.688;23.330;2023-03-01T15:45:57;6.30;99.90
46562;DHT22;32289;42.688;23.330;2023-03-01T15:49:42;6.40;99.90
46562;DHT22;32289;42.688;23.330;2023-03-01T15:53:24;6.20;99.90
46562;DHT22;32289;42.688;23.330;2023-03-01T15:57:13;6.30;99.90
46562;DHT22;32289;42.688;23.330;2023-03-01T16:00:57;6.20;99.90
46562;DHT22;32289;42.688;23.330;2023-03-01T16:04:39;6.20;99.90
46562;DHT22;32289;42.688;23.330;2023-03-01T16:08:20;6.20;99.90
46562;DHT22;32289;42.688;23.330;2023-03-01T16:12:00;6.00;99.90
46562;DHT22;32289;42.688;23.330;2023-03-01T16:15:42;6.00;99.90
46562;DHT22;32289;42.688;23.330;2023-03-01T16:19:23;6.00;99.90
46562;DHT22;32289;42.688;23.330;2023-03-01T16:23:06;6.00;99.90
46562;DHT22;32289;42.688;23.330;2023-03-01T16:26:47;6.00;99.90
46562;DHT22;32289;42.688;23.330;2023-03-01T16:30:28;5.90;99.90
46562;DHT22;32289;42.688;23.330;2023-03-01T16:34:09;6.00;99.90
46562;DHT22;32289;42.688;23.330;2023-03-01T16:37:50;6.00;99.90
46562;DHT22;32289;42.688;23.330;2023-03-01T16:41:32;6.10;99.90
46562;DHT22;32289;42.688;23.330;2023-03-01T16:45:13;6.00;99.90
46562;DHT22;32289;42.688;23.330;2023-03-01T16:48:55;6.00;99.90
46562;DHT22;32289;42.688;23.330;2023-03-01T16:52:36;6.00;99.90
46562;DHT22;32289;42.688;23.330;2023-03-01T16:56:18;6.00;99.90
46562;DHT22;32289;42.688;23.330;2023-03-01T16:59:59;6.00;99.90
46562;DHT22;32289;42.688;23.330;2023-03-01T17:03:40;5.90;99.90
46562;DHT22;32289;42.688;23.330;2023-03-01T17:07:22;5.90;99.90
46562;DHT22;32289;42.688;23.330;2023-03-01T17:11:05;5.90;99.90
46562;DHT22;32289;42.688;23.330;2023-03-01T17:14:46;5.80;99.90
46562;DHT22;32289;42.688;23.330;2023-03-01T17:18:27;5.80;99.90
46562;DHT22;32289;42.688;23.330;2023-03-01T17:22:07;5.70;99.90
46562;DHT22;32289;42.688;23.330;2023-03-01T17:25:48;5.70;99.90
46562;DHT22;32289;42.688;23.330;2023-03-01T17:29:29;5.70;99.90
46562;DHT22;32289;42.688;23.330;2023-03-01T17:33:10;5.80;99.90
46562;DHT22;32289;42.688;23.330;2023-03-01T17:36:51;5.80;99.90
46562;DHT22;32289;42.688;23.330;2023-03-01T17:40:33;5.90;99.90
46562;DHT22;32289;42.688;23.330;2023-03-01T17:44:15;5.80;99.90
46562;DHT22;32289;42.688;23.330;2023-03-01T17:47:56;5.70;99.90
46562;DHT22;32289;42.688;23.330;2023-03-01T17:51:36;5.70;99.90
46562;DHT22;32289;42.688;23.330;2023-03-01T17:55:17;5.70;99.90
46562;DHT22;32289;42.688;23.330;2023-03-01T17:58:59;5.60;99.90
46562;DHT22;32289;42.688;23.330;2023-03-01T18:02:40;5.60;99.90
46562;DHT22;32289;42.688;23.330;2023-03-01T18:06:23;5.60;99.90
46562;DHT22;32289;42.688;23.330;2023-03-01T18:10:04;5.50;99.90
46562;DHT22;32289;42.688;23.330;2023-03-01T18:13:46;5.40;99.90
46562;DHT22;32289;42.688;23.330;2023-03-01T18:17:28;5.40;99.90
46562;DHT22;32289;42.688;23.330;2023-03-01T18:21:08;5.40;99.90
46562;DHT22;32289;42.688;23.330;2023-03-01T18:24:49;5.40;99.90
46562;DHT22;32289;42.688;23.330;2023-03-01T18:28:31;5.40;99.90
46562;DHT22;32289;42.688;23.330;2023-03-01T18:32:11;5.50;99.90
46562;DHT22;32289;42.688;23.330;2023-03-01T18:35:52;5.40;99.90
46562;DHT22;32289;42.688;23.330;2023-03-01T18:39:33;5.50;99.90
46562;DHT22;32289;42.688;23.330;2023-03-01T18:43:14;5.40;99.90
46562;DHT22;32289;42.688;23.330;2023-03-01T18:46:55;5.40;99.90
46562;DHT22;32289;42.688;23.330;2023-03-01T18:50:37;5.50;99.90
46562;DHT22;32289;42.688;23.330;2023-03-01T18:54:18;5.50;99.90
46562;DHT22;32289;42.688;23.330;2023-03-01T18:57:59;5.40;99.90
46562;DHT22;32289;42.688;23.330;2023-03-01T19:01:40;5.40;99.90
46562;DHT22;32289;42.688;23.330;2023-03-01T19:05:20;5.40;99.90
46562;DHT22;32289;42.688;23.330;2023-03-01T19:09:03;5.40;99.90
46562;DHT22;32289;42.688;23.330;2023-03-01T19:12:44;5.40;99.90
46562;DHT22;32289;42.688;23.330;2023-03-01T19:16:27;5.30;99.90
46562;DHT22;32289;42.688;23.330;2023-03-01T19:20:10;5.30;99.90
46562;DHT22;32289;42.688;23.330;2023-03-01T19:23:52;5.30;99.90
46562;DHT22;32289;42.688;23.330;2023-03-01T19:27:33;5.40;99.90
46562;DHT22;32289;42.688;23.330;2023-03-01T19:31:17;5.30;99.90
46562;DHT22;32289;42.688;23.330;2023-03-01T19:34:57;5.20;99.90
46562;DHT22;32289;42.688;23.330;2023-03-01T19:38:40;5.40;99.90
46562;DHT22;32289;42.688;23.330;2023-03-01T19:42:21;5.40;99.90
46562;DHT22;32289;42.688;23.330;2023-03-01T19:46:06;5.30;99.90
46562;DHT22;32289;42.688;23.330;2023-03-01T19:49:46;5.40;99.90
46562;DHT22;32289;42.688;23.330;2023-03-01T19:53:27;5.40;99.90
46562;DHT22;32289;42.688;23.330;2023-03-01T19:57:08;5.50;99.90
46562;DHT22;32289;42.688;23.330;2023-03-01T20:00:48;5.50;99.90
46562;DHT22;32289;42.688;23.330;2023-03-01T20:04:32;5.50;99.90
46562;DHT22;32289;42.688;23.330;2023-03-01T20:08:12;5.40;99.90
46562;DHT22;32289;42.688;23.330;2023-03-01T20:11:53;5.40;99.90
46562;DHT22;32289;42.688;23.330;2023-03-01T20:15:34;5.30;99.90
46562;DHT22;32289;42.688;23.330;2023-03-01T20:19:15;5.20;99.90
46562;DHT22;32289;42.688;23.330;2023-03-01T20:22:55;5.20;99.90
46562;DHT22;32289;42.688;23.330;2023-03-01T20:26:36;5.30;99.90
46562;DHT22;32289;42.688;23.330;2023-03-01T20:30:17;5.20;99.90
46562;DHT22;32289;42.688;23.330;2023-03-01T20:33:58;5.20;99.90
46562;DHT22;32289;42.688;23.330;2023-03-01T20:37:39;5.10;99.90
46562;DHT22;32289;42.688;23.330;2023-03-01T20:41:21;5.10;99.90
46562;DHT22;32289;42.688;23.330;2023-03-01T20:45:05;5.00;99.90
46562;DHT22;32289;42.688;23.330;2023-03-01T20:48:46;5.10;99.90
46562;DHT22;32289;42.688;23.330;2023-03-01T20:52:27;5.00;99.90
46562;DHT22;32289;42.688;23.330;2023-03-01T20:56:11;5.10;99.90
46562;DHT22;32289;42.688;23.330;2023-03-01T20:59:52;5.10;99.90
46562;DHT22;32289;42.688;23.330;2023-03-01T21:03:33;5.10;99.90
46562;DHT22;32289;42.688;23.330;2023-03-01T21:07:14;5.10;99.90
46562;DHT22;32289;42.688;23.330;2023-03-01T21:10:55;5.10;99.90
46562;DHT22;32289;42.688;23.330;2023-03-01T21:14:36;5.10;99.90
46562;DHT22;32289;42.688;23.330;2023-03-01T21:18:27;5.10;99.90
46562;DHT22;32289;42.688;23.330;2023-03-01T21:22:13;5.00;99.90
46562;DHT22;32289;42.688;23.330;2023-03-01T21:29:45;5.00;99.90
46562;DHT22;32289;42.688;23.330;2023-03-01T21:33:26;4.90;99.90
46562;DHT22;32289;42.688;23.330;2023-03-01T21:37:08;4.80;99.90
46562;DHT22;32289;42.688;23.330;2023-03-01T21:40:49;4.90;99.90
46562;DHT22;32289;42.688;23.330;2023-03-01T21:44:31;4.90;99.90
46562;DHT22;32289;42.688;23.330;2023-03-01T21:48:11;4.90;99.90
46562;DHT22;32289;42.688;23.330;2023-03-01T21:51:52;4.90;99.90
46562;DHT22;32289;42.688;23.330;2023-03-01T21:55:33;4.90;99.90
46562;DHT22;32289;42.688;23.330;2023-03-01T21:59:19;4.90;99.90
46562;DHT22;32289;42.688;23.330;2023-03-01T22:03:00;4.90;99.90
46562;DHT22;32289;42.688;23.330;2023-03-01T22:06:43;4.90;99.90
46562;DHT22;32289;42.688;23.330;2023-03-01T22:10:24;4.90;99.90
46562;DHT22;32289;42.688;23.330;2023-03-01T22:14:09;4.90;99.90
46562;DHT22;32289;42.688;23.330;2023-03-01T22:17:51;4.90;99.90
46562;DHT22;32289;42.688;23.330;2023-03-01T22:21:34;4.90;99.90
46562;DHT22;32289;42.688;23.330;2023-03-01T22:25:17;4.90;99.90
46562;DHT22;32289;42.688;23.330;2023-03-01T22:29:00;5.00;99.90
46562;DHT22;32289;42.688;23.330;2023-03-01T22:32:41;4.90;99.90
46562;DHT22;32289;42.688;23.330;2023-03-01T22:36:22;5.00;99.90
46562;DHT22;32289;42.688;23.330;2023-03-01T22:40:03;5.00;99.90
46562;DHT22;32289;42.688;23.330;2023-03-01T22:43:44;4.90;99.90
46562;DHT22;32289;42.688;23.330;2023-03-01T22:47:25;4.90;99.90
46562;DHT22;32289;42.688;23.330;2023-03-01T22:51:06;4.90;99.90
46562;DHT22;32289;42.688;23.330;2023-03-01T22:54:47;5.00;99.90
46562;DHT22;32289;42.688;23.330;2023-03-01T22:58:28;5.20;99.90
46562;DHT22;32289;42.688;23.330;2023-03-01T23:02:09;5.00;99.90
46562;DHT22;32289;42.688;23.330;2023-03-01T23:05:49;5.10;99.90
46562;DHT22;32289;42.688;23.330;2023-03-01T23:09:32;5.10;99.90
46562;DHT22;32289;42.688;23.330;2023-03-01T23:13:13;5.00;99.90
46562;DHT22;32289;42.688;23.330;2023-03-01T23:16:54;5.00;99.90
46562;DHT22;32289;42.688;23.330;2023-03-01T23:20:35;5.00;99.90
46562;DHT22;32289;42.688;23.330;2023-03-01T23:24:18;4.90;99.90
46562;DHT22;32289;42.688;23.330;2023-03-01T23:27:59;5.00;99.90
46562;DHT22;32289;42.688;23.330;2023-03-01T23:31:39;5.10;99.90
46562;DHT22;32289;42.688;23.330;2023-03-01T23:35:20;5.20;99.90
46562;DHT22;32289;42.688;23.330;2023-03-01T23:39:04;5.10;99.90
46562;DHT22;32289;42.688;23.330;2023-03-01T23:42:45;5.00;99.90
46562;DHT22;32289;42.688;23.330;2023-03-01T23:46:28;4.90;99.90
46562;DHT22;32289;42.688;23.330;2023-03-01T23:50:10;4.90;99.90
46562;DHT22;32289;42.688;23.330;2023-03-01T23:53:56;5.00;99.90
46562;DHT22;32289;42.688;23.330;2023-03-01T23:57:38;4.90;99.90
